Latest Weather Observations for Argyle

IDW60801

Issued at 6:23 am WST Wednesday 8 December 2021 (issued every 10 minutes, with the page automatically refreshed every 10 minutes)

About weather observations | Map of weather stations | Latest weather observations for WA | Other Formats
Station Details ID: 002064 Name: ARGYLE AERODROME Lat: -16.64 Lon: 128.45 Height: 164.0 m
Data from the previous 72 hours. | See also: Recent months at Argyle
Date/Time
WST
Temp
°C
App
Temp
°C
Dew
Point
°C
Rel
Hum
%
Delta-T
°C
Wind Press
QNH
hPa
Press
MSL
hPa
Rain since
9am
mm
Dir  Spd
km/h
Gust
km/h
Spd
kts
Gust
kts
08/06:00am 27.4 30.6 21.2 69 4.1 S 6 9 3 5 1011.0 1009.7 1.8
08/05:30am 26.9 29.3 21.6 72 3.6 SSE 11 15 6 8 1010.7 1009.4 1.8
08/05:00am 27.3 30.9 21.3 69 4.0 SW 4 11 2 6 1009.9 1008.6 1.8
08/04:30am 27.0 29.8 21.5 72 3.7 W 9 13 5 7 1009.7 1008.4 1.8
08/04:00am 27.1 29.5 22.3 75 3.3 W 13 19 7 10 1009.5 1008.2 1.8
08/03:30am 27.0 30.0 22.6 77 3.0 WSW 11 15 6 8 1009.1 1007.8 1.8
08/03:00am 26.7 30.0 22.5 78 2.9 W 9 13 5 7 1008.7 1007.4 1.8
08/02:30am 26.3 29.3 22.6 80 2.5 WNW 11 13 6 7 1008.3 1006.9 1.8
08/02:00am 26.4 29.8 22.7 80 2.5 W 9 11 5 6 1008.4 1007.0 1.8
08/01:30am 26.5 30.4 23.0 81 2.4 WSW 7 9 4 5 1008.6 1007.2 1.8
08/01:00am 26.5 30.9 23.4 83 2.1 WNW 6 11 3 6 1008.3 1006.9 1.8
08/12:30am 26.3 30.5 23.4 84 2.0 W 7 11 4 6 1009.0 1007.7 1.8
08/12:00am 25.9 29.8 23.0 84 2.0 E 7 13 4 7 1009.1 1007.8 1.8
 
Date/Time
WST
Temp
°C
App
Temp
°C
Dew
Point
°C
Rel
Hum
%
Delta-T
°C
Wind Press
QNH
hPa
Press
MSL
hPa
Rain since
9am
mm
Dir  Spd
km/h
Gust
km/h
Spd
kts
Gust
kts
07/11:30pm 25.9 28.2 22.8 83 2.1 E 15 24 8 13 1009.7 1008.4 1.8
07/11:00pm 26.2 29.1 22.5 80 2.5 NNW 11 15 6 8 1009.1 1007.8 1.6
07/10:30pm 26.8 28.2 22.6 78 2.9 NNW 19 26 10 14 1009.1 1007.8 0.4
07/10:15pm 26.8 28.2 21.8 74 3.4 NNW 17 20 9 11 1010.1 1008.8 0.4
07/10:05pm 27.3 29.0 20.9 68 4.3 NW 13 19 7 10 1010.3 1009.0 0.2
07/10:00pm 27.8 30.3 21.1 67 4.5 NW 9 17 5 9 1010.5 1009.2 0.0
07/09:30pm 29.7 30.6 20.0 56 6.4 WSW 15 24 8 13 1010.6 1009.3 0.0
07/09:12pm 30.0 29.7 20.3 56 6.4 W 22 33 12 18 1010.5 1009.2 0.0
07/09:02pm 30.8 30.9 20.4 54 6.9 W 20 32 11 17 1010.4 1009.1 0.0
07/09:00pm 30.8 30.9 20.4 54 6.9 W 20 32 11 17 1010.4 1009.1 0.0
07/08:57pm 30.8 30.8 20.1 53 7.1 W 20 32 11 17 1010.3 1009.0 0.0
07/08:47pm 31.6 32.1 19.2 47 8.2 WNW 15 22 8 12 1010.4 1009.1 0.0
07/08:30pm 31.6 32.7 18.9 47 8.3 N 11 15 6 8 1010.0 1008.7 0.0
07/08:00pm 32.5 33.9 18.7 44 9.0 NNE 9 20 5 11 1009.4 1008.1 0.0
07/07:35pm 31.8 31.9 18.4 45 8.7 ENE 15 22 8 12 1008.3 1006.9 0.0
07/07:30pm 31.7 32.3 18.7 46 8.5 ENE 13 20 7 11 1008.4 1007.0 0.0
07/07:25pm 31.7 32.5 19.0 47 8.3 ENE 13 22 7 12 1008.6 1007.2 0.0
07/07:00pm 31.5 29.7 19.5 49 7.9 E 28 41 15 22 1007.9 1006.5 0.0
07/06:39pm 31.6 30.4 20.8 52 7.3 ESE 28 46 15 25 1008.0 1006.6 0.0
07/06:30pm 32.6 33.1 20.8 49 7.9 ENE 19 30 10 16 1007.7 1006.3 0.0
07/06:00pm 32.1 32.1 21.0 52 7.5 NE 22 35 12 19 1005.9 1004.5 0.0
07/05:36pm 33.4 30.8 19.8 44 9.1 NNE 33 56 18 30 1005.7 1004.3 0.0
07/05:30pm 36.5 35.6 18.1 33 12.1 NE 20 44 11 24 1005.3 1004.0 0.0
07/05:00pm 38.4 38.0 16.1 27 14.4 NNE 13 20 7 11 1004.2 1002.9 0.0
07/04:30pm 38.9 38.2 15.3 25 15.0 NE 13 22 7 12 1004.1 1002.8 0.0
07/04:00pm 39.3 38.5 15.0 24 15.5 ENE 13 26 7 14 1004.0 1002.7 0.0
07/03:30pm 39.3 38.6 14.3 22 15.7 NE 11 20 6 11 1004.0 1002.7 0.0
07/03:00pm 39.4 38.3 14.4 22 15.8 NE 13 24 7 13 1004.0 1002.7 0.0
07/02:30pm 39.6 38.5 15.2 23 15.6 NE 15 22 8 12 1004.5 1003.2 0.0
07/02:00pm 39.6 39.5 15.9 25 15.3 NE 11 28 6 15 1004.8 1003.5 0.0
07/01:30pm 38.4 37.8 16.7 28 14.1 NNE 15 28 8 15 1005.7 1004.3 0.0
07/01:00pm 38.7 39.6 18.5 30 13.4 ENE 11 28 6 15 1006.0 1004.6 0.0
07/12:30pm 38.2 38.8 18.6 31 13.0 ESE 13 28 7 15 1006.5 1005.1 0.0
07/12:00pm 38.3 38.7 18.2 31 13.3 ENE 13 26 7 14 1006.6 1005.2 0.0
07/11:30am 38.2 37.9 16.5 28 14.0 NNE 13 20 7 11 1007.0 1005.6 0.0
07/11:00am 38.0 37.4 15.7 26 14.3 NE 13 24 7 13 1007.4 1006.0 0.0
07/10:30am 37.5 38.1 18.5 32 12.6 ENE 13 24 7 13 1007.9 1006.5 0.0
07/10:00am 36.0 36.8 19.0 36 11.3 N 13 24 7 13 1008.1 1006.7 0.0
07/09:30am 34.9 36.2 20.1 42 9.9 NNW 13 20 7 11 1008.5 1007.1 0.0
07/09:00am 34.2 35.4 19.8 42 9.6 NNW 13 22 7 12 1008.7 1007.4 0.0
07/08:30am 33.9 36.1 20.3 45 9.1 N 9 17 5 9 1008.9 1007.6 0.0
07/08:00am 33.0 35.8 20.5 47 8.4 NE 6 9 3 5 1009.0 1007.7 0.0
07/07:30am 32.5 35.9 21.0 50 7.8 ENE 4 7 2 4 1009.1 1007.8 0.0
07/07:00am 31.5 35.5 21.4 55 6.8 WSW 2 7 1 4 1008.7 1007.4 0.0
07/06:30am 30.8 33.5 21.3 57 6.4 NNW 9 13 5 7 1008.3 1006.9 0.0
07/06:00am 30.3 33.6 21.4 59 6.0 WSW 6 9 3 5 1008.1 1006.7 0.0
07/05:30am 29.6 32.6 21.3 61 5.6 ESE 7 7 4 4 1007.7 1006.3 0.0
07/05:00am 29.4 31.9 21.1 61 5.6 NW 9 13 5 7 1006.7 1005.3 0.0
07/04:30am 29.7 30.7 20.3 57 6.2 N 15 20 8 11 1006.3 1004.9 0.0
07/04:00am 29.4 29.6 19.4 55 6.6 N 17 20 9 11 1006.2 1004.8 0.0
07/03:30am 29.6 31.1 18.1 50 7.4 N 7 9 4 5 1006.6 1005.2 0.0
07/03:00am 29.6 30.7 18.1 50 7.4 N 9 11 5 6 1006.9 1005.5 0.0
07/02:30am 29.9 30.2 18.0 48 7.7 N 13 15 7 8 1007.1 1005.7 0.0
07/02:00am 30.1 31.5 17.9 48 7.9 NNE 7 13 4 7 1007.3 1005.9 0.0
07/01:30am 29.9 31.4 17.7 48 7.8 NE 6 9 3 5 1007.4 1006.0 0.0
07/01:00am 30.6 32.0 17.7 46 8.3 SE 7 11 4 6 1007.6 1006.2 0.0
07/12:30am 30.8 30.9 17.5 45 8.5 SE 13 26 7 14 1008.1 1006.7 0.0
07/12:00am 30.9 29.9 17.6 45 8.5 SE 19 28 10 15 1008.0 1006.6 0.0
 
Date/Time
WST
Temp
°C
App
Temp
°C
Dew
Point
°C
Rel
Hum
%
Delta-T
°C
Wind Press
QNH
hPa
Press
MSL
hPa
Rain since
9am
mm
Dir  Spd
km/h
Gust
km/h
Spd
kts
Gust
kts
06/11:30pm 32.0 31.2 17.1 41 9.5 SE 17 32 9 17 1007.7 1006.3 0.0
06/11:00pm 32.5 33.8 19.4 46 8.7 SE 11 22 6 12 1007.8 1006.4 0.0
06/10:30pm 32.3 34.8 19.9 48 8.2 ENE 6 7 3 4 1006.8 1005.4 0.0
06/10:00pm 32.3 34.6 19.9 48 8.3 NNE 7 11 4 6 1006.5 1005.1 0.0
06/09:30pm 32.7 34.4 20.2 47 8.4 NNE 11 13 6 7 1006.4 1005.0 0.0
06/09:00pm 33.0 36.3 19.1 43 9.2 CALM 0 0 0 0 1006.7 1005.3 0.0
06/08:30pm 33.5 35.1 19.2 43 9.5 NNE 9 11 5 6 1006.2 1004.8 0.0
06/08:00pm 33.8 34.7 18.3 39 10.2 NNE 11 15 6 8 1006.1 1004.7 0.0
06/07:30pm 34.1 34.5 17.3 36 10.8 NNE 11 15 6 8 1005.4 1004.1 0.0
06/07:00pm 34.4 34.6 16.7 34 11.4 NNE 11 15 6 8 1005.0 1003.7 0.0
06/06:30pm 34.6 34.7 16.4 33 11.6 NE 11 17 6 9 1004.6 1003.3 0.0
06/06:00pm 35.0 34.6 16.3 32 12.0 NNE 13 20 7 11 1004.3 1003.0 0.0
06/05:30pm 35.8 35.3 16.0 30 12.6 NE 13 20 7 11 1003.7 1002.4 0.0
06/05:00pm 36.6 35.4 16.2 29 13.1 NE 17 28 9 15 1003.4 1002.1 0.0
06/04:30pm 37.8 37.2 15.6 27 14.2 ENE 13 20 7 11 1003.2 1001.9 0.0
06/04:00pm 38.6 37.9 16.3 27 14.4 ENE 15 24 8 13 1003.2 1001.9 0.0
06/03:30pm 38.3 37.1 16.0 27 14.3 ENE 17 28 9 15 1003.3 1002.0 0.0
06/03:00pm 38.5 37.7 15.0 25 14.9 ENE 13 26 7 14 1003.5 1002.2 0.0
06/02:30pm 38.4 37.9 14.9 25 14.9 N 11 20 6 11 1003.7 1002.4 0.0
06/02:00pm 38.6 37.9 16.3 27 14.4 NE 15 22 8 12 1003.8 1002.5 0.0
06/01:30pm 38.4 38.1 15.5 26 14.6 NNW 11 20 6 11 1004.1 1002.8 0.0
06/01:00pm 37.6 37.7 15.4 26 14.1 NNW 9 19 5 10 1004.6 1003.3 0.0
06/12:30pm 37.2 37.2 16.2 29 13.5 NE 11 17 6 9 1005.2 1003.9 0.0
06/12:00pm 37.0 36.3 15.5 28 13.7 NNE 13 20 7 11 1005.7 1004.3 0.0
06/11:30am 36.1 36.3 16.8 32 12.4 ENE 11 19 6 10 1006.1 1004.7 0.0
06/11:00am 34.5 35.5 17.7 37 10.9 N 9 19 5 10 1006.6 1005.2 0.0
06/10:30am 35.1 37.1 19.1 39 10.6 N 7 24 4 13 1007.4 1006.0 0.0
06/10:00am 33.2 35.2 20.0 45 8.8 N 9 20 5 11 1008.1 1006.7 0.0
06/09:30am 32.9 34.8 21.4 50 7.8 N 13 24 7 13 1008.6 1007.2 0.0
06/09:00am 30.6 32.2 21.4 58 6.2 NNW 15 22 8 12 1008.8 1007.5 0.0
06/08:30am 29.3 31.0 21.0 61 5.6 NE 13 17 7 9 1010.0 1008.7 0.0
06/08:00am 28.5 30.6 21.0 64 5.0 ENE 11 17 6 9 1010.3 1009.0 0.0
06/07:47am 28.3 30.6 21.3 65 4.7 ENE 11 19 6 10 1010.5 1009.2 0.0
06/07:33am 28.7 30.6 22.0 67 4.5 E 15 22 8 12 1010.4 1009.1 0.0
06/07:30am 28.2 29.8 21.5 67 4.5 E 15 22 8 12 1010.3 1009.0 0.0
06/07:00am 28.2 30.7 21.7 68 4.4 E 11 17 6 9 1009.7 1008.4 0.0
06/06:30am 27.1 29.0 21.4 71 3.8 ESE 13 17 7 9 1009.5 1008.2 0.0
06/06:00am 28.3 31.0 20.6 63 5.1 NE 7 11 4 6 1009.5 1008.2 0.0
06/05:30am 27.8 30.5 20.6 65 4.8 NNE 7 11 4 6 1008.9 1007.6 0.0
06/05:00am 27.4 30.6 21.2 69 4.1 ENE 6 9 3 5 1007.9 1006.5 0.0
06/04:30am 27.0 30.7 22.2 75 3.2 NNE 6 9 3 5 1007.1 1005.7 0.0
06/04:00am 27.0 30.1 22.2 75 3.3 NNW 9 11 5 6 1006.4 1005.0 0.0
06/03:30am 27.0 30.2 21.7 73 3.6 W 7 9 4 5 1006.0 1004.6 0.0
06/03:00am 27.0 30.8 21.7 73 3.6 SE 4 7 2 4 1006.6 1005.2 0.0
06/02:30am 26.8 30.7 21.8 74 3.4 E 4 9 2 5 1006.1 1004.7 0.0
06/02:00am 26.6 30.4 21.6 74 3.4 E 4 9 2 5 1006.1 1004.7 0.0
06/01:30am 26.5 28.6 21.7 75 3.2 ENE 13 19 7 10 1006.2 1004.8 0.0
06/01:00am 26.3 29.1 21.5 75 3.2 NNE 9 19 5 10 1006.8 1005.4 0.0
06/12:30am 26.2 27.6 21.8 77 3.0 E 17 24 9 13 1007.0 1005.6 0.0
06/12:00am 27.7 29.7 21.5 69 4.2 ESE 13 19 7 10 1007.1 1005.7 0.0
 
Date/Time
WST
Temp
°C
App
Temp
°C
Dew
Point
°C
Rel
Hum
%
Delta-T
°C
Wind Press
QNH
hPa
Press
MSL
hPa
Rain since
9am
mm
Dir  Spd
km/h
Gust
km/h
Spd
kts
Gust
kts
05/11:30pm 27.5 30.7 21.3 69 4.1 ENE 6 13 3 7 1006.8 1005.4 0.0
05/11:00pm 27.6 25.7 20.9 67 4.5 N 32 44 17 24 1005.7 1004.3 0.0
05/10:52pm 28.2 27.2 21.2 65 4.7 NNE 28 43 15 23 1006.2 1004.8 0.0
05/10:30pm 29.9 31.6 22.3 63 5.2 ENE 17 24 9 13 1007.6 1006.2 0.0
05/10:00pm 31.5 33.1 20.8 53 7.2 NE 13 19 7 10 1007.6 1006.2 0.0
05/09:30pm 30.9 32.3 21.9 58 6.1 NE 17 26 9 14 1007.7 1006.3 0.0
05/09:00pm 30.6 31.9 21.7 59 6.0 ENE 17 30 9 16 1007.1 1005.7 0.0
05/08:30pm 30.8 32.1 21.6 58 6.2 NE 17 26 9 14 1006.3 1004.9 0.0
05/08:00pm 31.0 29.8 20.9 55 6.8 NE 28 39 15 21 1005.8 1004.4 0.0
05/07:30pm 33.4 33.7 19.5 44 9.2 NE 17 30 9 16 1005.2 1003.9 0.0
05/07:00pm 34.4 34.6 16.7 34 11.4 NE 11 17 6 9 1004.4 1003.1 0.0
05/06:30pm 35.1 33.6 16.4 32 12.0 N 19 32 10 17 1003.3 1002.0 0.0
05/06:00pm 34.8 35.9 18.0 37 11.0 N 9 13 5 7 1002.1 1000.7 0.0
05/05:30pm 34.9 35.5 17.6 35 11.2 N 11 15 6 8 1001.8 1000.4 0.0
05/05:00pm 36.0 35.2 17.2 33 12.2 NNE 17 24 9 13 1002.2 1000.8 0.0
05/04:30pm 36.3 35.0 15.9 29 13.0 ENE 17 24 9 13 1002.2 1000.8 0.0
05/04:10pm 36.2 32.8 15.9 30 12.9 E 28 43 15 23 1002.0 1000.6 0.0
05/04:00pm 38.0 37.6 16.3 27 14.0 NE 13 22 7 12 1001.8 1000.4 0.0
05/03:30pm 38.3 36.2 14.8 25 14.8 SSE 19 28 10 15 1002.2 1000.8 0.0
05/03:00pm 41.5 41.2 13.2 19 17.7 W 7 13 4 7 1001.9 1000.5 0.0
05/02:31pm 40.0 36.1 15.6 24 15.7 NW 30 52 16 28 1001.8 1000.4 0.0
05/02:30pm 39.7 36.1 15.3 23 15.6 NW 28 52 15 28 1001.8 1000.4 0.0
05/02:26pm 39.5 37.4 15.2 24 15.5 WNW 20 52 11 28 1001.6 1000.2 0.0
05/02:00pm 40.9 39.8 14.3 21 16.9 WNW 13 20 7 11 1002.2 1000.8 0.0
05/01:30pm 41.0 41.0 14.3 20 16.9 NW 7 15 4 8 1003.1 1001.7 0.0
05/01:00pm 39.2 37.7 16.8 27 14.6 W 20 35 11 19 1004.0 1002.7 0.0
05/12:30pm 42.0 41.0 16.6 23 16.6 W 17 26 9 14 1004.3 1003.0 0.0
05/12:00pm 41.3 41.1 16.7 24 16.1 N 13 24 7 13 1004.9 1003.6 0.0
05/11:30am 41.1 40.8 16.5 23 16.0 NW 13 26 7 14 1005.5 1004.2 0.0
05/11:00am 40.8 39.6 16.2 23 16.0 WNW 17 26 9 14 1006.2 1004.8 0.0
05/10:30am 40.7 40.7 18.0 26 15.1 WNW 15 24 8 13 1006.7 1005.3 0.0
05/10:00am 38.9 37.7 17.1 28 14.3 W 19 32 10 17 1007.2 1005.8 0.0
05/09:30am 38.1 37.3 17.0 29 13.7 WNW 17 26 9 14 1007.6 1006.2 0.0
05/09:00am 37.4 37.1 17.4 30 13.1 NW 15 26 8 14 1007.9 1006.5 0.0
05/08:30am 37.3 37.8 18.3 32 12.5 NW 13 24 7 13 1008.4 1007.0 0.0
05/08:00am 36.6 36.3 18.2 34 12.1 WNW 17 26 9 14 1008.4 1007.0 0.0
05/07:30am 35.3 36.6 19.2 38 10.7 NNW 11 17 6 9 1008.4 1007.0 0.0
05/07:00am 34.3 35.9 19.1 40 10.1 NNW 9 13 5 7 1008.2 1006.8 0.0
05/06:30am 33.6 35.3 19.3 43 9.5 NNW 9 15 5 8 1007.9 1006.5 0.0

Other formats

Comma delimited format used in spreadsheet applications
http://www.bom.gov.au/fwo/IDW60801/IDW60801.94217.axf

JavaScript Object Notation format (JSON) in row-major order
http://www.bom.gov.au/fwo/IDW60801/IDW60801.94217.json

Data quality

Most of these data are generated automatically and are frequently updated. Quality checks on data are not normally performed. It is possible for incorrect values to appear. Refer to information at About Latest Weather Observations and please check the disclaimer before using these data.